Time;durP1;ratioP1;P1;durP2;ratioP2;P2;SDS_P1;SDS_P2;PMS_P1;PMS_P2;Temp;Humidity;BMP_temperature;BMP_pressure;BME280_temperature;BME280_humidity;BME280_pressure;Samples;Min_cycle;Max_cycle;Signal;HPM_P1;HPM_P2
2021/12/07 00:01:41;;;;;;;3.08;0.90;;;21.70;65.10;;;;;;5166992;27;20029;-48
2021/12/07 00:04:07;;;;;;;1.08;0.80;;;21.70;65.10;;;;;;5165279;27;20485;-47
2021/12/07 00:06:34;;;;;;;1.65;0.90;;;21.70;65.10;;;;;;5149435;27;20044;-49
2021/12/07 00:09:05;;;;;;;3.10;0.77;;;21.70;65.10;;;;;;5155161;27;20058;-46
2021/12/07 00:11:31;;;;;;;1.52;0.80;;;21.60;65.00;;;;;;5146311;27;20604;-46
2021/12/07 00:13:58;;;;;;;0.98;0.88;;;21.70;65.10;;;;;;5149872;27;20035;-47
2021/12/07 00:16:25;;;;;;;2.03;0.90;;;21.60;65.00;;;;;;5166221;27;20033;-49
2021/12/07 00:18:53;;;;;;;1.13;0.85;;;21.60;65.00;;;;;;5163040;27;20117;-47
2021/12/07 00:21:21;;;;;;;1.75;1.00;;;21.60;65.10;;;;;;5145928;27;20039;-47
2021/12/07 00:23:48;;;;;;;2.00;1.05;;;21.60;65.10;;;;;;5160605;27;20027;-46
2021/12/07 00:26:15;;;;;;;1.45;0.77;;;21.60;65.00;;;;;;5166907;27;20118;-47
2021/12/07 00:28:41;;;;;;;1.02;0.80;;;21.50;65.00;;;;;;5166418;27;20055;-47
2021/12/07 00:31:36;;;;;;;1.05;0.80;;;21.50;65.00;;;;;;5166664;27;20138;-46
2021/12/07 00:34:10;;;;;;;0.85;0.60;;;21.50;65.00;;;;;;5163192;27;20035;-46
2021/12/07 00:36:38;;;;;;;1.00;0.90;;;21.50;65.00;;;;;;5166683;27;20418;-47
2021/12/07 00:39:05;;;;;;;0.95;0.85;;;21.50;65.00;;;;;;5166348;27;20042;-46
2021/12/07 00:41:32;;;;;;;;;;;21.50;65.00;;;;;;5165767;27;20075;-46
2021/12/07 00:43:58;;;;;;;1.23;0.80;;;21.50;65.00;;;;;;5165746;27;19907;-46
2021/12/07 00:46:26;;;;;;;1.10;0.60;;;21.40;64.90;;;;;;5154835;27;20071;-47
2021/12/07 00:48:52;;;;;;;1.15;0.70;;;21.40;65.00;;;;;;5163478;27;20759;-48
2021/12/07 00:51:18;;;;;;;1.77;0.90;;;21.40;65.00;;;;;;5145702;27;20031;-48
2021/12/07 00:53:47;;;;;;;0.95;0.75;;;21.40;65.00;;;;;;5160175;27;20036;-48
2021/12/07 00:56:13;;;;;;;0.80;0.70;;;21.40;65.00;;;;;;5165815;27;20537;-47
2021/12/07 00:58:39;;;;;;;2.00;0.70;;;21.40;65.00;;;;;;5165008;27;20041;-46
2021/12/07 01:01:07;;;;;;;0.75;0.75;;;21.40;64.90;;;;;;5164714;27;20444;-48
2021/12/07 01:03:34;;;;;;;0.73;0.60;;;21.40;64.90;;;;;;5165883;27;20079;-47
2021/12/07 01:06:23;;;;;;;0.67;0.60;;;21.30;65.00;;;;;;5165202;27;20539;-46
2021/12/07 01:09:02;;;;;;;1.10;0.80;;;21.30;64.90;;;;;;5166896;27;20041;-47
2021/12/07 01:25:19;;;;;;;1.50;0.80;;;21.20;64.90;;;;;;5148791;27;20033;-46
2021/12/07 01:27:50;;;;;;;2.67;0.50;;;21.20;64.90;;;;;;5163880;27;20038;-47
2021/12/07 01:30:37;;;;;;;1.48;0.70;;;21.20;64.90;;;;;;5165333;27;20087;-45
2021/12/07 01:33:21;;;;;;;2.75;0.60;;;21.20;64.90;;;;;;5164231;27;20030;-48
2021/12/07 02:01:43;;;;;;;1.02;0.57;;;20.90;64.60;;;;;;5164394;27;20105;-48
2021/12/07 02:04:13;;;;;;;2.25;0.43;;;20.90;64.60;;;;;;5164454;27;20049;-46
2021/12/07 02:06:39;;;;;;;1.10;0.65;;;20.90;64.60;;;;;;5149441;27;20030;-47
2021/12/07 02:09:08;;;;;;;1.05;0.60;;;20.90;64.60;;;;;;5164304;27;20054;-48
2021/12/07 02:11:34;;;;;;;0.77;0.52;;;20.90;64.60;;;;;;5163911;27;20034;-44
2021/12/07 02:14:15;;;;;;;1.35;0.70;;;20.90;64.60;;;;;;5164349;27;20019;-45
2021/12/07 02:16:49;;;;;;;1.05;0.60;;;20.90;64.60;;;;;;5164537;27;20171;-46
2021/12/07 02:19:16;;;;;;;1.23;0.70;;;20.80;64.60;;;;;;5163047;27;20015;-47
2021/12/07 02:21:43;;;;;;;1.38;0.60;;;20.80;64.60;;;;;;5145080;27;20045;-50
2021/12/07 02:24:09;;;;;;;1.35;0.60;;;20.80;64.60;;;;;;5161826;27;20019;-47
2021/12/07 02:26:35;;;;;;;0.60;0.47;;;20.80;64.50;;;;;;5164230;27;20051;-46
2021/12/07 02:29:06;;;;;;;1.70;0.60;;;20.80;64.60;;;;;;5163318;27;20023;-45
2021/12/07 02:31:32;;;;;;;1.25;0.60;;;20.80;64.50;;;;;;5166003;27;20030;-45
2021/12/07 02:33:59;;;;;;;0.77;0.63;;;20.70;64.50;;;;;;5164081;27;20031;-44
2021/12/07 02:36:29;;;;;;;0.50;0.47;;;20.80;64.40;;;;;;5164591;27;20054;-44
2021/12/07 02:38:55;;;;;;;1.35;0.68;;;20.80;64.40;;;;;;5162194;27;20054;-45
2021/12/07 02:41:21;;;;;;;0.50;0.40;;;20.90;64.50;;;;;;5164233;27;20022;-45
2021/12/07 02:43:48;;;;;;;0.85;0.60;;;20.90;64.40;;;;;;5163656;27;20027;-48
2021/12/07 02:46:14;;;;;;;1.67;0.60;;;20.80;64.30;;;;;;5146546;27;20034;-45
2021/12/07 02:48:40;;;;;;;0.50;0.50;;;20.80;64.40;;;;;;5162964;27;20270;-45
2021/12/07 02:51:07;;;;;;;1.85;0.47;;;20.80;64.40;;;;;;5163122;27;20038;-44
2021/12/07 02:53:34;;;;;;;0.40;0.40;;;20.70;64.40;;;;;;5163855;27;20026;-47
2021/12/07 02:56:00;;;;;;;;;;;20.70;64.40;;;;;;5163515;27;20048;-44
2021/12/07 02:58:26;;;;;;;2.03;0.50;;;20.70;64.40;;;;;;5163761;27;19911;-46
2021/12/07 03:01:02;;;;;;;0.33;0.33;;;20.80;64.40;;;;;;5163508;27;20051;-46
2021/12/07 03:03:33;;;;;;;0.50;0.50;;;20.80;64.30;;;;;;5154198;27;20061;-45
2021/12/07 03:06:19;;;;;;;0.65;0.60;;;20.80;64.20;;;;;;5145563;27;20030;-45
2021/12/07 03:28:06;;;;;;;2.15;0.60;;;20.60;64.50;;;;;;5153430;27;20022;-47
2021/12/07 03:30:33;;;;;;;0.65;0.50;;;20.60;64.50;;;;;;5163396;27;20049;-48
2021/12/07 03:33:00;;;;;;;0.50;0.50;;;20.50;64.40;;;;;;5145102;27;20029;-45
2021/12/07 03:35:26;;;;;;;0.40;0.40;;;20.50;64.30;;;;;;5163336;27;20069;-44
2021/12/07 03:37:53;;;;;;;0.77;0.55;;;20.50;64.30;;;;;;5163237;27;20061;-45
2021/12/07 03:40:21;;;;;;;0.40;0.40;;;20.50;64.30;;;;;;5162776;27;20042;-45
2021/12/07 03:42:47;;;;;;;0.45;0.40;;;20.40;64.20;;;;;;5163775;27;20034;-44
2021/12/07 03:45:15;;;;;;;0.95;0.50;;;20.40;64.20;;;;;;5163617;27;20031;-46
2021/12/07 03:47:41;;;;;;;0.88;0.50;;;20.40;64.20;;;;;;5163117;27;20030;-45
2021/12/07 03:50:08;;;;;;;0.40;0.40;;;20.40;64.20;;;;;;5162833;27;20041;-47
2021/12/07 03:52:34;;;;;;;0.77;0.57;;;20.40;64.10;;;;;;5162868;27;20022;-45
2021/12/07 03:55:00;;;;;;;0.90;0.65;;;20.30;64.10;;;;;;5159527;27;20033;-44
2021/12/07 03:57:27;;;;;;;0.63;0.63;;;20.30;64.80;;;;;;5164365;27;20015;-45
2021/12/07 03:59:53;;;;;;;0.77;0.60;;;20.30;64.10;;;;;;5166438;27;20042;-46
2021/12/07 04:02:19;;;;;;;0.57;0.52;;;20.30;64.00;;;;;;5166724;27;21610;-46
2021/12/07 04:04:45;;;;;;;1.88;0.50;;;20.30;64.00;;;;;;5165026;27;20027;-46
2021/12/07 04:07:12;;;;;;;0.93;0.65;;;20.20;64.00;;;;;;5165285;27;20030;-47
2021/12/07 04:09:38;;;;;;;2.33;0.57;;;20.20;63.90;;;;;;5165118;27;20032;-47
2021/12/07 04:12:05;;;;;;;1.33;0.70;;;20.20;64.00;;;;;;5164655;27;20154;-46
2021/12/07 04:14:32;;;;;;;0.60;0.60;;;20.20;64.00;;;;;;5163801;27;20046;-45
2021/12/07 04:16:58;;;;;;;0.60;0.60;;;20.20;63.90;;;;;;5164391;27;20489;-45
2021/12/07 04:19:24;;;;;;;0.55;0.50;;;20.10;63.80;;;;;;5165971;27;20027;-45
2021/12/07 04:21:50;;;;;;;0.95;0.60;;;20.10;63.80;;;;;;5166284;27;20044;-46
2021/12/07 04:24:16;;;;;;;0.82;0.60;;;20.10;64.60;;;;;;5164678;27;20047;-45
2021/12/07 04:26:43;;;;;;;0.63;0.60;;;20.10;63.80;;;;;;5165309;27;20110;-47
2021/12/07 04:29:10;;;;;;;1.40;0.90;;;20.10;63.80;;;;;;5165941;27;20030;-46
2021/12/07 04:31:36;;;;;;;;;;;20.00;63.70;;;;;;5147150;27;20095;-45
2021/12/07 04:34:03;;;;;;;0.77;0.60;;;20.00;63.70;;;;;;5146506;27;19906;-46
2021/12/07 04:36:29;;;;;;;1.45;0.68;;;20.00;63.70;;;;;;5165456;27;20027;-47
2021/12/07 04:38:55;;;;;;;0.70;0.47;;;20.00;63.70;;;;;;5167885;27;20776;-45
2021/12/07 04:41:21;;;;;;;1.38;0.80;;;19.90;63.70;;;;;;5164418;27;20029;-45
2021/12/07 04:43:49;;;;;;;0.53;0.53;;;19.90;63.70;;;;;;5165742;27;20054;-46
2021/12/07 04:46:23;;;;;;;1.38;0.88;;;19.90;63.70;;;;;;5164985;27;20081;-47
2021/12/07 04:59:33;;;;;;;0.80;0.63;;;19.80;63.60;;;;;;5163512;27;20042;-46
2021/12/07 05:01:59;;;;;;;0.85;0.70;;;19.80;63.60;;;;;;5162732;27;20051;-47
2021/12/07 05:04:29;;;;;;;0.85;0.70;;;19.80;63.60;;;;;;5164002;27;20022;-45
2021/12/07 05:07:05;;;;;;;1.92;1.00;;;19.80;63.50;;;;;;5164172;27;20034;-45
2021/12/07 05:14:37;;;;;;;1.77;0.90;;;19.70;63.50;;;;;;5164381;27;20034;-48
2021/12/07 05:17:37;;;;;;;0.70;0.70;;;19.70;63.40;;;;;;5164103;27;20064;-46
2021/12/07 05:26:11;;;;;;;1.23;0.98;;;19.60;63.40;;;;;;5155470;27;20449;-46
2021/12/07 05:39:28;;;;;;;1.15;0.90;;;19.50;63.40;;;;;;5163151;27;20025;-47
2021/12/07 05:41:54;;;;;;;1.48;0.85;;;19.50;63.40;;;;;;5164034;27;20022;-46
2021/12/07 05:44:20;;;;;;;1.08;0.95;;;19.50;63.50;;;;;;5163944;27;20468;-45
2021/12/07 05:46:46;;;;;;;1.00;0.90;;;19.40;63.40;;;;;;5163964;27;20026;-44
2021/12/07 05:49:13;;;;;;;0.93;0.70;;;19.40;63.40;;;;;;5158749;27;20027;-46
2021/12/07 05:51:39;;;;;;;0.85;0.85;;;19.40;63.40;;;;;;5157967;27;20038;-47
2021/12/07 05:54:05;;;;;;;1.10;0.80;;;19.40;63.40;;;;;;5147905;27;20019;-45
2021/12/07 05:56:31;;;;;;;1.08;0.82;;;19.40;63.40;;;;;;5155914;27;20044;-45
2021/12/07 05:58:57;;;;;;;0.80;0.70;;;19.40;63.40;;;;;;5164633;27;20041;-47
2021/12/07 06:01:23;;;;;;;0.95;0.80;;;19.30;63.30;;;;;;5163746;27;20042;-47
2021/12/07 06:03:49;;;;;;;1.73;1.00;;;19.30;63.30;;;;;;5164148;27;20664;-45
2021/12/07 06:06:15;;;;;;;0.80;0.80;;;19.30;63.30;;;;;;5163818;27;20102;-47
2021/12/07 06:08:41;;;;;;;1.58;0.90;;;19.30;63.30;;;;;;5162495;27;20015;-45
2021/12/07 06:11:07;;;;;;;0.80;0.80;;;19.30;63.20;;;;;;5162009;27;20045;-46
2021/12/07 06:13:33;;;;;;;1.17;1.00;;;19.20;63.20;;;;;;5164111;27;20023;-45
2021/12/07 06:16:05;;;;;;;3.65;1.10;;;19.20;63.20;;;;;;5164076;27;20041;-46
2021/12/07 06:18:31;;;;;;;1.88;0.80;;;19.20;63.20;;;;;;5164276;27;20033;-46
2021/12/07 06:21:16;;;;;;;0.85;0.80;;;19.20;63.20;;;;;;5163447;27;20026;-44
2021/12/07 06:23:42;;;;;;;1.05;0.95;;;19.10;63.20;;;;;;5163782;27;20033;-47
2021/12/07 06:26:08;;;;;;;1.50;1.13;;;19.10;63.10;;;;;;5163099;27;20019;-47
2021/12/07 06:28:35;;;;;;;1.65;0.95;;;19.10;63.10;;;;;;5164346;27;20027;-46
2021/12/07 06:31:01;;;;;;;1.23;1.10;;;19.10;63.20;;;;;;5163911;27;20106;-46
2021/12/07 06:33:27;;;;;;;1.77;0.98;;;19.10;63.20;;;;;;5163298;27;20023;-48
2021/12/07 06:35:57;;;;;;;1.25;0.90;;;19.00;63.10;;;;;;5161890;27;20030;-49
2021/12/07 06:38:30;;;;;;;1.02;0.90;;;19.00;63.10;;;;;;5139311;27;20030;-47
2021/12/07 06:40:56;;;;;;;0.85;0.82;;;19.00;63.10;;;;;;5161127;27;20084;-44
2021/12/07 06:43:23;;;;;;;2.03;1.00;;;19.00;63.10;;;;;;5162995;27;20114;-45
2021/12/07 06:45:49;;;;;;;1.10;1.00;;;19.00;63.10;;;;;;5162314;27;20034;-45
2021/12/07 06:48:15;;;;;;;1.17;1.08;;;19.00;63.20;;;;;;5159307;27;20039;-48
2021/12/07 06:50:41;;;;;;;2.28;1.00;;;18.90;63.10;;;;;;5158694;27;20030;-46
2021/12/07 06:53:07;;;;;;;1.00;0.90;;;18.90;63.20;;;;;;5154689;27;20034;-45
2021/12/07 06:55:34;;;;;;;2.00;0.95;;;18.90;63.20;;;;;;5163823;27;20102;-45
2021/12/07 06:58:00;;;;;;;1.00;0.90;;;18.90;63.20;;;;;;5164168;27;20030;-46
2021/12/07 07:00:26;;;;;;;0.85;0.82;;;18.80;63.10;;;;;;5103044;27;20084;-45
2021/12/07 07:02:52;;;;;;;1.35;1.13;;;18.80;63.10;;;;;;5058834;28;20036;-46
2021/12/07 07:05:18;;;;;;;0.90;0.90;;;18.80;63.20;;;;;;5061215;27;20036;-46
2021/12/07 07:07:44;;;;;;;1.00;0.90;;;18.70;63.00;;;;;;5059171;28;20044;-45
2021/12/07 07:10:12;;;;;;;1.23;0.77;;;18.80;63.20;;;;;;5058878;28;20543;-45
2021/12/07 07:12:39;;;;;;;1.05;0.80;;;18.90;63.40;;;;;;5145324;27;20031;-46
2021/12/07 07:15:05;;;;;;;0.88;0.73;;;19.00;63.60;;;;;;5126581;27;20063;-45
2021/12/07 07:17:32;;;;;;;0.93;0.82;;;19.00;63.70;;;;;;5145318;27;20033;-46
2021/12/07 07:19:58;;;;;;;0.60;0.60;;;19.20;63.90;;;;;;5080666;27;20023;-45
2021/12/07 07:22:24;;;;;;;0.70;0.50;;;19.20;64.10;;;;;;5164060;27;20046;-46
2021/12/07 07:24:50;;;;;;;0.68;0.50;;;19.30;64.20;;;;;;5155906;27;20538;-46
2021/12/07 07:27:16;;;;;;;0.75;0.65;;;19.40;64.40;;;;;;5163900;27;20030;-45
2021/12/07 07:29:42;;;;;;;0.52;0.52;;;19.50;64.60;;;;;;5112886;27;20059;-47
2021/12/07 07:32:09;;;;;;;0.57;0.50;;;19.60;64.80;;;;;;5059721;27;20025;-48
2021/12/07 07:34:35;;;;;;;0.70;0.67;;;19.70;64.80;;;;;;5059283;28;20026;-46
2021/12/07 07:37:01;;;;;;;1.10;0.60;;;19.80;65.10;;;;;;5062238;27;20261;-46
2021/12/07 07:39:27;;;;;;;1.10;0.50;;;19.90;65.00;;;;;;5044083;27;20033;-47
2021/12/07 07:41:53;;;;;;;1.00;0.47;;;19.90;64.80;;;;;;5082667;27;20019;-46
2021/12/07 07:44:19;;;;;;;0.50;0.50;;;19.90;64.30;;;;;;5053575;27;20042;-45
2021/12/07 07:46:46;;;;;;;0.60;0.60;;;19.90;64.20;;;;;;5055105;28;20025;-46
2021/12/07 07:49:12;;;;;;;0.70;0.60;;;19.90;64.30;;;;;;5056780;28;20029;-48
2021/12/07 07:51:38;;;;;;;2.55;0.60;;;20.00;64.30;;;;;;5073920;27;20041;-45
2021/12/07 07:54:05;;;;;;;0.60;0.40;;;20.10;64.00;;;;;;5061811;28;20030;-48
2021/12/07 07:56:31;;;;;;;0.50;0.50;;;20.20;64.10;;;;;;5134456;27;20049;-46
2021/12/07 07:58:58;;;;;;;1.40;0.50;;;20.20;63.70;;;;;;5146645;27;20274;-46
2021/12/07 08:01:24;;;;;;;1.42;0.65;;;20.20;63.40;;;;;;5164197;27;20050;-47
2021/12/07 08:03:51;;;;;;;0.70;0.40;;;20.20;63.10;;;;;;5167097;27;20056;-46
2021/12/07 08:06:18;;;;;;;0.70;0.57;;;20.20;62.90;;;;;;5167159;27;20183;-48
2021/12/07 08:08:44;;;;;;;0.85;0.57;;;20.20;63.00;;;;;;5162156;27;20026;-47
2021/12/07 08:11:10;;;;;;;0.47;0.45;;;20.30;63.00;;;;;;5162644;27;20035;-47
2021/12/07 08:13:36;;;;;;;1.10;0.70;;;20.40;62.80;;;;;;5167375;27;20029;-45
2021/12/07 08:16:02;;;;;;;1.20;0.50;;;20.50;63.10;;;;;;5166443;27;20094;-46
2021/12/07 08:18:28;;;;;;;0.75;0.50;;;20.50;62.70;;;;;;5167076;27;20027;-46
2021/12/07 08:20:55;;;;;;;0.50;0.50;;;20.50;62.40;;;;;;5165760;27;20043;-45
2021/12/07 08:23:21;;;;;;;0.60;0.40;;;20.50;62.20;;;;;;5166990;27;20038;-45
2021/12/07 08:25:48;;;;;;;0.50;0.50;;;20.50;61.90;;;;;;5165868;27;20129;-47
2021/12/07 08:28:15;;;;;;;0.73;0.57;;;20.50;61.90;;;;;;5166407;27;20031;-46
2021/12/07 08:30:41;;;;;;;;;;;20.50;61.90;;;;;;5165226;27;20038;-46
2021/12/07 08:33:07;;;;;;;1.23;0.40;;;20.50;61.70;;;;;;5146025;27;19907;-47
2021/12/07 08:35:34;;;;;;;0.50;0.50;;;20.60;61.70;;;;;;5145858;27;20030;-46
2021/12/07 08:38:00;;;;;;;0.50;0.43;;;20.60;61.50;;;;;;5152983;27;20512;-46
2021/12/07 08:40:27;;;;;;;0.52;0.50;;;20.60;61.20;;;;;;5160738;27;20045;-47
2021/12/07 08:42:53;;;;;;;0.40;0.40;;;20.60;61.00;;;;;;5165602;27;20032;-45
2021/12/07 08:45:20;;;;;;;0.70;0.57;;;20.60;61.00;;;;;;5166351;27;20030;-47
2021/12/07 08:47:46;;;;;;;1.77;0.50;;;20.60;61.00;;;;;;5166577;27;20048;-45
2021/12/07 08:50:16;;;;;;;0.93;0.50;;;20.60;61.20;;;;;;5157793;27;20069;-47
2021/12/07 08:52:42;;;;;;;0.60;0.50;;;20.70;61.10;;;;;;5165960;27;20034;-49
2021/12/07 09:00:26;;;;;;;1.02;0.50;;;20.70;60.40;;;;;;5155239;27;20511;-47
2021/12/07 09:02:52;;;;;;;0.80;0.65;;;20.70;60.40;;;;;;5145418;27;20035;-46
2021/12/07 09:05:18;;;;;;;1.08;0.55;;;20.60;60.30;;;;;;5145090;27;20030;-45
2021/12/07 09:07:45;;;;;;;0.50;0.50;;;20.60;60.60;;;;;;5145448;27;20742;-47
2021/12/07 09:10:11;;;;;;;1.55;0.50;;;20.70;60.60;;;;;;5162944;27;20475;-47
2021/12/07 09:12:38;;;;;;;0.70;0.47;;;20.70;60.40;;;;;;5165788;27;20039;-45
2021/12/07 09:15:04;;;;;;;0.43;0.43;;;20.80;60.30;;;;;;5165258;27;20023;-43
2021/12/07 09:17:30;;;;;;;0.55;0.52;;;20.70;60.10;;;;;;5165701;27;20463;-45
2021/12/07 09:19:57;;;;;;;0.52;0.47;;;20.70;60.00;;;;;;5165161;27;20027;-47
2021/12/07 09:22:23;;;;;;;0.60;0.60;;;20.60;60.00;;;;;;5165670;27;20051;-46
2021/12/07 09:24:49;;;;;;;0.43;0.40;;;20.60;59.90;;;;;;5165783;27;20019;-45
2021/12/07 09:27:15;;;;;;;0.70;0.40;;;20.60;60.10;;;;;;5165441;27;20053;-46
2021/12/07 09:29:41;;;;;;;0.55;0.40;;;20.70;60.10;;;;;;5165260;27;20078;-45
2021/12/07 09:32:08;;;;;;;0.90;0.40;;;20.80;60.10;;;;;;5165415;27;20034;-47
2021/12/07 09:34:34;;;;;;;0.63;0.47;;;20.80;59.90;;;;;;5164671;27;20015;-46
2021/12/07 09:37:00;;;;;;;0.40;0.40;;;20.70;59.70;;;;;;5167440;27;20056;-47
2021/12/07 09:39:26;;;;;;;1.70;0.40;;;20.70;59.70;;;;;;5146095;27;20045;-45
2021/12/07 09:41:52;;;;;;;0.40;0.40;;;20.60;59.70;;;;;;5165170;27;20026;-46
2021/12/07 09:44:18;;;;;;;0.30;0.30;;;20.60;59.80;;;;;;5165453;27;20023;-47
2021/12/07 09:46:44;;;;;;;0.40;0.40;;;20.70;59.90;;;;;;5164895;27;20037;-45
2021/12/07 09:49:11;;;;;;;0.60;0.50;;;20.70;59.80;;;;;;5159852;27;20685;-46
2021/12/07 09:51:38;;;;;;;1.30;0.50;;;20.80;59.80;;;;;;5159282;27;20035;-48
2021/12/07 09:54:05;;;;;;;0.77;0.50;;;20.80;59.50;;;;;;5164870;27;20034;-47
2021/12/07 09:56:31;;;;;;;0.95;0.40;;;20.70;59.40;;;;;;5164436;27;20054;-46
2021/12/07 09:58:59;;;;;;;0.85;0.50;;;20.60;59.40;;;;;;5165319;27;20038;-47
2021/12/07 10:01:25;;;;;;;0.60;0.47;;;20.60;59.60;;;;;;5164830;27;20600;-45
2021/12/07 10:03:52;;;;;;;0.40;0.40;;;20.60;59.70;;;;;;5165125;27;20433;-45
2021/12/07 10:06:19;;;;;;;1.15;0.38;;;20.70;59.70;;;;;;5164786;27;20022;-45
2021/12/07 10:08:45;;;;;;;0.47;0.40;;;20.80;59.50;;;;;;5160500;27;20034;-46
2021/12/07 10:11:11;;;;;;;0.50;0.40;;;20.80;59.40;;;;;;5164115;27;20376;-46
2021/12/07 10:13:39;;;;;;;0.50;0.40;;;20.80;59.30;;;;;;5164360;27;20052;-46
2021/12/07 10:16:06;;;;;;;0.70;0.57;;;20.70;59.90;;;;;;5164563;27;20037;-47
2021/12/07 10:18:36;;;;;;;2.10;0.52;;;20.60;59.30;;;;;;5164941;27;20027;-47
2021/12/07 10:21:04;;;;;;;0.47;0.43;;;20.60;59.50;;;;;;5144373;27;20044;-47
2021/12/07 10:23:34;;;;;;;0.50;0.40;;;20.70;59.50;;;;;;5143756;27;20023;-47
2021/12/07 10:26:07;;;;;;;0.50;0.45;;;20.80;59.40;;;;;;5157594;27;20027;-47
2021/12/07 10:28:38;;;;;;;0.45;0.30;;;20.80;59.30;;;;;;5164745;27;20019;-47
2021/12/07 10:31:07;;;;;;;0.35;0.35;;;20.70;59.10;;;;;;5164353;27;20531;-45
2021/12/07 10:33:42;;;;;;;1.00;0.43;;;20.60;59.10;;;;;;5164591;27;20090;-46
2021/12/07 10:36:20;;;;;;;0.35;0.32;;;20.60;59.20;;;;;;5164315;27;20057;-45
2021/12/07 10:38:53;;;;;;;0.70;0.50;;;20.60;59.40;;;;;;5157285;27;20041;-45
2021/12/07 10:41:23;;;;;;;0.43;0.40;;;20.70;59.40;;;;;;5174394;27;20111;-45
2021/12/07 10:43:54;;;;;;;0.50;0.40;;;20.80;59.20;;;;;;5185318;27;20026;-45
2021/12/07 10:46:39;;;;;;;0.45;0.45;;;20.80;59.10;;;;;;5162559;27;20066;-47
2021/12/07 10:49:21;;;;;;;0.47;0.38;;;20.70;59.00;;;;;;5159589;27;20027;-47
2021/12/07 10:52:15;;;;;;;0.50;0.40;;;20.60;59.00;;;;;;5164004;27;20040;-47
2021/12/07 10:55:02;;;;;;;0.52;0.40;;;20.60;59.20;;;;;;5163980;27;20044;-47
2021/12/07 10:57:33;;;;;;;0.50;0.50;;;20.70;59.30;;;;;;5143219;28;20065;-46
2021/12/07 11:00:27;;;;;;;0.40;0.38;;;20.70;59.10;;;;;;5158741;27;20051;-47
2021/12/07 11:03:00;;;;;;;0.45;0.40;;;20.80;59.10;;;;;;5164224;27;20017;-45
2021/12/07 11:05:50;;;;;;;0.50;0.38;;;20.70;58.90;;;;;;5163909;27;20161;-45
2021/12/07 11:08:18;;;;;;;0.80;0.32;;;20.60;58.90;;;;;;5168150;27;20767;-45
2021/12/07 11:10:47;;;;;;;0.57;0.40;;;20.60;59.00;;;;;;5168213;27;20400;-48
2021/12/07 11:13:21;;;;;;;0.38;0.32;;;20.60;59.20;;;;;;5168336;27;20027;-48
2021/12/07 11:16:00;;;;;;;0.70;0.30;;;20.70;59.20;;;;;;5167797;27;20054;-47
2021/12/07 11:18:35;;;;;;;0.30;0.30;;;20.80;59.00;;;;;;5168302;27;20026;-47
2021/12/07 11:21:06;;;;;;;0.45;0.40;;;20.70;58.90;;;;;;5148075;27;20052;-46
2021/12/07 11:23:35;;;;;;;0.52;0.50;;;20.70;58.80;;;;;;5163339;27;20041;-47
2021/12/07 11:31:49;;;;;;;0.40;0.30;;;20.60;59.10;;;;;;5168247;27;20103;-45
2021/12/07 11:34:19;;;;;;;0.50;0.40;;;20.60;59.10;;;;;;5169932;27;20030;-47
2021/12/07 11:36:53;;;;;;;0.30;0.30;;;20.70;58.90;;;;;;5167944;27;20027;-45
2021/12/07 11:39:23;;;;;;;0.63;0.40;;;20.70;58.80;;;;;;5159189;27;20091;-45
2021/12/07 11:41:57;;;;;;;0.68;0.40;;;20.60;58.60;;;;;;5167784;27;20246;-45
2021/12/07 11:44:23;;;;;;;0.65;0.50;;;20.60;58.70;;;;;;5149642;27;20097;-48
2021/12/07 11:46:51;;;;;;;0.45;0.40;;;20.50;58.90;;;;;;5167711;27;20034;-46
2021/12/07 11:49:24;;;;;;;0.68;0.47;;;20.60;58.90;;;;;;5163268;27;20027;-46
2021/12/07 11:51:53;;;;;;;0.40;0.30;;;20.70;58.90;;;;;;5167309;27;20037;-46
2021/12/07 11:54:22;;;;;;;0.40;0.40;;;20.70;58.80;;;;;;5166772;27;20022;-47
2021/12/07 11:56:49;;;;;;;0.25;0.25;;;20.70;58.50;;;;;;5167594;27;20091;-50
2021/12/07 11:59:15;;;;;;;2.72;0.30;;;20.60;58.50;;;;;;5167109;27;20079;-48
2021/12/07 12:01:43;;;;;;;1.42;0.43;;;20.60;58.60;;;;;;5167528;27;20122;-45
2021/12/07 12:04:09;;;;;;;0.60;0.30;;;20.50;58.60;;;;;;5166924;27;20037;-45
2021/12/07 12:06:35;;;;;;;0.85;0.40;;;20.60;58.80;;;;;;5166032;27;20391;-47
2021/12/07 12:09:01;;;;;;;0.30;0.30;;;20.70;58.70;;;;;;5166554;27;20054;-45
2021/12/07 12:11:42;;;;;;;0.50;0.40;;;20.70;58.60;;;;;;5167295;27;20080;-46
2021/12/07 12:14:11;;;;;;;0.70;0.50;;;20.70;58.40;;;;;;5167210;27;20142;-46
2021/12/07 12:16:48;;;;;;;0.55;0.45;;;20.60;58.30;;;;;;5166516;27;20154;-49
2021/12/07 12:19:39;;;;;;;0.57;0.40;;;20.60;58.50;;;;;;5130599;27;20682;-45
2021/12/07 12:22:17;;;;;;;0.40;0.40;;;20.60;58.70;;;;;;5166994;27;20160;-46
2021/12/07 12:24:49;;;;;;;;;;;20.60;58.60;;;;;;5119400;27;20031;-47
2021/12/07 12:27:20;;;;;;;0.40;0.40;;;20.70;58.50;;;;;;5127350;27;20360;-48
2021/12/07 12:29:49;;;;;;;0.50;0.40;;;20.70;58.40;;;;;;5157227;27;20034;-47
2021/12/07 12:32:36;;;;;;;1.05;0.38;;;20.60;58.20;;;;;;5168156;27;20030;-45
2021/12/07 12:35:04;;;;;;;0.40;0.30;;;20.50;58.40;;;;;;5187389;27;20026;-47
2021/12/07 12:37:33;;;;;;;0.82;0.38;;;20.50;58.40;;;;;;5169624;27;20082;-48
2021/12/07 12:40:03;;;;;;;0.60;0.40;;;20.60;58.60;;;;;;5161986;27;20090;-47
2021/12/07 12:42:31;;;;;;;0.40;0.30;;;20.70;58.40;;;;;;5147072;27;20030;-46
2021/12/07 12:45:22;;;;;;;0.52;0.40;;;20.70;58.40;;;;;;5145341;27;20043;-47
2021/12/07 12:48:01;;;;;;;0.60;0.50;;;20.70;58.30;;;;;;5166255;27;20037;-46
2021/12/07 12:50:31;;;;;;;0.73;0.40;;;20.60;58.30;;;;;;5150217;27;20043;-46
2021/12/07 12:53:00;;;;;;;0.43;0.35;;;20.50;58.40;;;;;;5164123;27;20029;-46
2021/12/07 12:55:30;;;;;;;0.65;0.30;;;20.60;58.60;;;;;;5165820;27;20832;-46
2021/12/07 12:57:57;;;;;;;0.52;0.30;;;20.60;58.50;;;;;;5159297;27;20024;-47
2021/12/07 13:00:23;;;;;;;0.60;0.40;;;20.70;58.40;;;;;;5105422;27;20041;-48
2021/12/07 13:02:52;;;;;;;0.50;0.40;;;20.70;58.20;;;;;;5062769;27;20025;-46
2021/12/07 13:05:20;;;;;;;0.40;0.40;;;20.70;58.20;;;;;;5053839;27;20508;-47
2021/12/07 13:07:46;;;;;;;0.57;0.47;;;20.60;58.30;;;;;;5112893;27;20037;-47
2021/12/07 13:10:12;;;;;;;0.60;0.40;;;20.50;58.30;;;;;;5108920;28;20026;-48
2021/12/07 13:12:39;;;;;;;0.32;0.30;;;20.60;58.50;;;;;;5042592;28;20033;-47
2021/12/07 13:15:09;;;;;;;0.40;0.40;;;20.60;58.50;;;;;;5059316;28;20050;-47
2021/12/07 13:17:38;;;;;;;0.70;0.47;;;20.70;58.40;;;;;;5054034;28;20092;-47
2021/12/07 13:20:29;;;;;;;0.77;0.40;;;20.70;58.20;;;;;;5040640;28;20075;-46
2021/12/07 13:23:10;;;;;;;0.65;0.30;;;20.60;58.20;;;;;;5052367;27;20033;-46
2021/12/07 13:25:43;;;;;;;0.45;0.30;;;20.60;58.20;;;;;;5060088;28;20021;-47
2021/12/07 13:28:18;;;;;;;0.75;0.50;;;20.50;58.40;;;;;;5060675;28;20033;-47
2021/12/07 13:30:53;;;;;;;0.57;0.47;;;20.60;58.40;;;;;;5068929;27;20051;-46
2021/12/07 13:33:23;;;;;;;0.30;0.30;;;20.70;58.20;;;;;;5061285;27;20021;-49
2021/12/07 13:35:50;;;;;;;0.50;0.40;;;20.70;58.20;;;;;;5060693;27;20036;-45
2021/12/07 13:38:25;;;;;;;0.50;0.45;;;20.60;57.90;;;;;;5062145;27;20044;-46
2021/12/07 13:40:54;;;;;;;0.50;0.43;;;20.60;58.00;;;;;;5060249;28;20523;-46
2021/12/07 13:43:31;;;;;;;0.32;0.32;;;20.50;58.00;;;;;;5060417;27;20462;-50
2021/12/07 13:46:13;;;;;;;0.40;0.40;;;20.60;58.20;;;;;;5064164;27;20033;-49
2021/12/07 13:48:40;;;;;;;0.40;0.30;;;20.70;58.00;;;;;;5052834;28;20025;-47
2021/12/07 13:51:06;;;;;;;1.77;0.40;;;20.70;57.90;;;;;;5157981;27;20042;-49
2021/12/07 13:53:34;;;;;;;0.70;0.57;;;20.70;57.70;;;;;;5074505;27;20114;-48
2021/12/07 13:56:00;;;;;;;0.50;0.40;;;20.60;57.70;;;;;;5127951;27;20103;-47
2021/12/07 13:58:26;;;;;;;0.80;0.38;;;20.60;57.80;;;;;;5085177;27;20022;-46
2021/12/07 14:00:52;;;;;;;2.20;0.47;;;20.50;57.90;;;;;;5139144;27;20055;-47
2021/12/07 14:03:19;;;;;;;2.60;0.60;;;20.60;58.00;;;;;;5164539;27;20018;-50
2021/12/07 14:05:46;;;;;;;2.45;0.55;;;20.60;57.90;;;;;;5159558;27;20114;-47
2021/12/07 14:08:14;;;;;;;1.27;0.50;;;20.70;57.60;;;;;;5144105;27;20518;-47
2021/12/07 14:10:46;;;;;;;0.52;0.40;;;20.70;57.30;;;;;;5164344;27;20050;-47
2021/12/07 14:13:12;;;;;;;0.60;0.50;;;20.70;57.20;;;;;;5164551;27;20078;-47
2021/12/07 14:15:40;;;;;;;1.65;0.47;;;20.60;57.10;;;;;;5146047;27;20026;-48
2021/12/07 14:18:14;;;;;;;0.30;0.30;;;20.50;57.10;;;;;;5164537;27;20110;-46
2021/12/07 14:20:43;;;;;;;1.70;0.40;;;20.50;57.30;;;;;;5147312;27;20027;-47
2021/12/07 14:23:16;;;;;;;0.77;0.45;;;20.60;57.30;;;;;;5152346;27;20495;-45
2021/12/07 14:25:47;;;;;;;1.10;0.40;;;20.70;57.30;;;;;;5164429;27;20109;-46
2021/12/07 14:28:27;;;;;;;0.70;0.50;;;20.70;57.20;;;;;;5164489;27;20030;-48
2021/12/07 14:30:58;;;;;;;0.65;0.40;;;20.70;57.00;;;;;;5166310;27;20034;-46
2021/12/07 14:33:24;;;;;;;0.63;0.50;;;20.60;56.90;;;;;;5164270;27;20042;-45
2021/12/07 14:35:50;;;;;;;1.45;0.47;;;20.60;57.00;;;;;;5164481;27;20148;-47
2021/12/07 14:38:16;;;;;;;0.52;0.40;;;20.60;57.20;;;;;;5150506;27;20477;-46
2021/12/07 14:40:43;;;;;;;1.10;0.32;;;20.60;57.10;;;;;;5163102;27;20023;-47